Time;durP1;ratioP1;P1;durP2;ratioP2;P2;SDS_P1;SDS_P2;PMS_P1;PMS_P2;Temp;Humidity;BMP_temperature;BMP_pressure;BME280_temperature;BME280_humidity;BME280_pressure;Samples;Min_cycle;Max_cycle;Signal;HPM_P1;HPM_P2
2022/05/31 00:04:33;;;;;;;26.53;13.70;;;;;;;11.66;77.07;100612.75;5141655;56;1141227;-72
2022/05/31 00:09:39;;;;;;;15.80;8.47;;;;;;;11.62;77.06;100608.17;5141786;56;1141209;-72
2022/05/31 00:14:46;;;;;;;7.75;5.33;;;;;;;11.56;77.25;100609.53;5142514;56;1137149;-72
2022/05/31 00:19:51;;;;;;;13.83;6.87;;;;;;;11.52;77.40;100608.57;5227586;56;1134874;-72
2022/05/31 00:24:57;;;;;;;12.50;6.43;;;;;;;11.49;77.77;100604.35;5227974;56;1141266;-72
2022/05/31 00:30:04;;;;;;;11.27;6.30;;;;;;;11.42;77.55;100605.83;5227984;56;1141165;-72
2022/05/31 00:35:17;;;;;;;14.53;5.63;;;;;;;11.40;77.64;100616.17;5233033;56;1141059;-72
2022/05/31 00:40:28;;;;;;;11.47;5.97;;;;;;;11.33;77.37;100613.64;5192980;56;1141050;-72
2022/05/31 00:46:01;;;;;;;13.40;6.20;;;;;;;11.30;77.46;100620.05;5200011;56;1141109;-72
2022/05/31 00:51:10;;;;;;;;;;;;;;;11.29;78.18;100618.36;5219690;56;1141275;-72
2022/05/31 00:56:20;;;;;;;8.48;5.62;;;;;;;11.31;78.23;100615.08;5217527;56;976336;-72
2022/05/31 01:01:28;;;;;;;11.53;6.90;;;;;;;11.13;77.41;100616.55;5237153;55;1137165;-73
2022/05/31 01:06:36;;;;;;;11.00;6.80;;;;;;;10.89;77.75;100621.93;5304424;55;1141036;-72
2022/05/31 01:11:44;;;;;;;9.60;4.97;;;;;;;10.86;78.58;100613.74;5304518;55;1141178;-72
2022/05/31 01:17:12;;;;;;;7.30;4.77;;;;;;;10.86;78.86;100620.36;5261824;55;1139020;-72
2022/05/31 01:22:47;;;;;;;8.73;5.47;;;;;;;10.87;78.35;100629.14;5136082;56;1139006;-72
2022/05/31 01:28:35;;;;;;;9.20;5.93;;;;;;;10.86;78.73;100638.03;5203763;56;1138976;-72
2022/05/31 01:34:25;;;;;;;6.53;4.53;;;;;;;10.78;78.42;100638.64;5152400;56;1136940;-72
2022/05/31 01:39:46;;;;;;;8.40;4.60;;;;;;;10.60;78.27;100648.45;5215283;56;1137286;-72
2022/05/31 01:44:56;;;;;;;8.53;4.87;;;;;;;10.23;78.55;100655.66;5210114;56;1137034;-72
2022/05/31 01:50:03;;;;;;;8.23;4.70;;;;;;;10.23;80.24;100660.95;5069482;56;1134946;-72
2022/05/31 01:55:11;;;;;;;6.27;4.77;;;;;;;10.26;80.60;100654.92;5065071;57;1134777;-72
2022/05/31 02:00:18;;;;;;;5.30;4.13;;;;;;;10.31;80.81;100659.41;5066031;56;1139183;-73
2022/05/31 02:05:24;;;;;;;5.70;3.90;;;;;;;10.33;81.28;100662.78;5222765;56;1139039;-72
2022/05/31 02:10:32;;;;;;;6.37;4.20;;;;;;;10.43;81.77;100664.25;5065319;57;1138871;-72
2022/05/31 02:15:38;;;;;;;7.87;4.70;;;;;;;10.60;82.55;100670.92;5075357;57;1139257;-72
2022/05/31 02:20:48;;;;;;;6.83;5.03;;;;;;;10.55;82.17;100670.78;5077483;57;1139095;-72
2022/05/31 02:25:54;;;;;;;4.77;4.27;;;;;;;10.56;82.56;100670.30;5130038;57;1139016;-72
2022/05/31 02:31:00;;;;;;;10.33;4.63;;;;;;;10.45;82.69;100666.31;5128987;56;1139022;-72
2022/05/31 02:36:07;;;;;;;6.53;4.73;;;;;;;10.45;82.69;100666.31;5133381;56;1140370;-72
2022/05/31 02:41:13;;;;;;;6.10;3.83;;;;;;;10.33;83.03;100666.75;5218097;56;1138960;-72
2022/05/31 02:46:19;;;;;;;7.70;5.17;;;;;;;10.21;83.30;100675.11;5276925;55;1139003;-72
2022/05/31 02:51:25;;;;;;;5.87;4.50;;;;;;;10.18;83.90;100671.81;5215787;56;1139241;-72
2022/05/31 02:56:31;;;;;;;7.10;4.13;;;;;;;10.18;84.12;100675.34;5215676;56;1138999;-72
2022/05/31 03:01:57;;;;;;;5.80;4.50;;;;;;;10.11;84.26;100685.09;5216980;56;1139025;-72
2022/05/31 03:07:21;;;;;;;5.40;4.80;;;;;;;9.96;84.62;100683.56;5226536;56;1139115;-72
2022/05/31 03:12:43;;;;;;;6.07;4.70;;;;;;;9.78;84.83;100691.86;5227800;56;1137050;-72
2022/05/31 03:18:00;;;;;;;5.90;4.83;;;;;;;9.67;84.92;100686.98;5228970;56;1136866;-72
2022/05/31 03:23:15;;;;;;;9.87;5.47;;;;;;;9.63;85.37;100690.31;5229015;56;1136826;-72
2022/05/31 03:28:23;;;;;;;12.93;5.03;;;;;;;9.71;85.76;100698.55;5208007;56;1136939;-72
2022/05/31 03:33:30;;;;;;;9.60;5.33;;;;;;;9.78;86.17;100697.14;5188932;56;1138935;-72
2022/05/31 03:38:36;;;;;;;8.80;5.50;;;;;;;9.81;86.45;100700.05;5228994;56;1136932;-72
2022/05/31 03:43:43;;;;;;;9.67;6.83;;;;;;;9.86;87.26;100697.92;5229093;56;1136975;-72
2022/05/31 03:49:01;;;;;;;15.33;7.87;;;;;;;9.90;87.45;100699.41;5170435;56;1134821;-72
2022/05/31 03:54:11;;;;;;;15.87;7.37;;;;;;;9.99;88.21;100697.88;5174413;56;1136895;-72
2022/05/31 03:59:37;;;;;;;10.63;4.80;;;;;;;10.09;88.01;100697.58;5102071;56;1136972;-72
2022/05/31 04:04:44;;;;;;;6.63;4.30;;;;;;;10.05;88.06;100705.38;5158306;56;1138966;-72
2022/05/31 04:09:52;;;;;;;8.53;4.80;;;;;;;9.96;89.89;100704.23;5181135;56;1136930;-72
2022/05/31 04:15:01;;;;;;;5.47;4.45;;;;;;;9.96;89.89;100704.23;5240099;56;1134852;-73
2022/05/31 04:20:10;;;;;;;8.20;4.83;;;;;;;9.96;90.29;100714.80;5158198;57;1134813;-72
2022/05/31 04:25:16;;;;;;;8.77;4.63;;;;;;;9.93;90.59;100713.69;5118429;57;1135258;-72
2022/05/31 04:30:47;;;;;;;7.33;4.62;;;;;;;9.99;91.11;100714.58;5158825;57;1132723;-72
2022/05/31 04:36:08;;;;;;;7.87;5.47;;;;;;;10.00;91.88;100715.43;5121285;57;1137267;-72
2022/05/31 04:41:25;;;;;;;8.03;5.23;;;;;;;10.01;92.14;100720.61;5130460;57;1139212;-72
2022/05/31 04:46:34;;;;;;;6.47;5.33;;;;;;;10.07;92.78;100726.78;5205605;56;1139013;-72
2022/05/31 04:51:54;;;;;;;4.90;4.33;;;;;;;10.12;93.20;100723.31;5215814;56;1139081;-72
2022/05/31 04:57:01;;;;;;;4.83;4.43;;;;;;;10.17;93.52;100725.63;5218786;56;1139003;-72
2022/05/31 05:02:09;;;;;;;8.43;5.23;;;;;;;10.21;94.57;100724.49;5227656;56;1139077;-72
2022/05/31 05:07:17;;;;;;;6.53;4.80;;;;;;;10.21;94.54;100732.42;5240974;55;1139225;-72
2022/05/31 05:12:23;;;;;;;4.60;3.67;;;;;;;10.27;95.56;100735.08;5242667;55;1138902;-73
2022/05/31 05:17:30;;;;;;;9.57;5.10;;;;;;;10.35;96.25;100732.73;5243308;55;1138991;-72
2022/05/31 05:22:36;;;;;;;5.97;4.93;;;;;;;10.41;96.29;100740.20;5191108;56;1138977;-72
2022/05/31 05:27:43;;;;;;;6.73;5.00;;;;;;;10.56;96.78;100731.98;5156153;56;1138953;-72
2022/05/31 05:32:51;;;;;;;6.13;4.43;;;;;;;10.74;96.44;100735.54;5190597;55;1138982;-72
2022/05/31 05:38:06;;;;;;;9.80;4.23;;;;;;;10.93;96.73;100738.02;5241992;55;1138971;-72
2022/05/31 05:43:14;;;;;;;8.37;4.70;;;;;;;11.17;96.35;100735.30;5229055;55;1138989;-73
2022/05/31 05:48:34;;;;;;;10.87;4.90;;;;;;;11.37;96.22;100740.87;5242475;55;1138943;-72
2022/05/31 05:53:39;;;;;;;5.70;4.50;;;;;;;11.47;95.92;100736.53;5242489;55;1141067;-72
2022/05/31 05:59:03;;;;;;;13.17;4.77;;;;;;;11.61;95.98;100735.81;5242408;55;1138922;-71
2022/05/31 06:04:47;;;;;;;5.67;4.60;;;;;;;11.78;95.57;100743.80;5239167;56;1139019;-72
2022/05/31 06:10:06;;;;;;;7.20;4.20;;;;;;;11.90;95.52;100740.20;5215878;56;1136949;-72
2022/05/31 06:15:19;;;;;;;8.23;3.10;;;;;;;12.17;94.79;100738.95;5215942;56;1137101;-72
2022/05/31 06:20:26;;;;;;;6.03;2.72;;;;;;;12.36;94.01;100743.13;5211909;56;1136238;-72
2022/05/31 06:25:32;;;;;;;5.50;2.70;;;;;;;12.50;92.46;100742.00;5156216;56;1136845;-71
2022/05/31 06:30:51;;;;;;;7.13;3.63;;;;;;;12.69;92.13;100739.48;5119823;57;1137108;-72
2022/05/31 06:36:01;;;;;;;5.27;1.90;;;;;;;12.88;92.04;100743.62;5051890;58;1137072;-72
2022/05/31 06:41:06;;;;;;;2.83;2.33;;;;;;;13.04;89.98;100750.67;4964074;59;1134928;-72
2022/05/31 06:46:31;;;;;;;2.10;1.80;;;;;;;13.13;90.47;100749.06;5033236;58;1138841;-72
2022/05/31 06:57:35;;;;;;;4.33;2.00;;;;;;;13.50;87.85;100755.23;5061070;57;1139038;-72
2022/05/31 07:02:47;;;;;;;2.50;1.80;;;;;;;13.60;87.56;100759.63;5048880;58;1138554;-72
2022/05/31 07:07:55;;;;;;;5.60;2.10;;;;;;;13.79;85.25;100760.20;5196530;56;1139143;-72
2022/05/31 07:13:20;;;;;;;4.70;2.70;;;;;;;13.93;85.34;100762.98;5227322;55;1139161;-72
2022/05/31 07:18:42;;;;;;;3.43;1.77;;;;;;;14.24;84.13;100755.30;5280461;55;1138872;-72
2022/05/31 07:23:48;;;;;;;2.17;1.50;;;;;;;14.40;81.02;100770.77;5304229;55;1138881;-71
2022/05/31 07:28:56;;;;;;;1.60;1.43;;;;;;;14.33;79.02;100765.63;5304074;55;1139011;-71
2022/05/31 07:34:01;;;;;;;1.73;1.40;;;;;;;14.38;80.14;100761.56;5247706;55;1138377;-73
2022/05/31 07:39:14;;;;;;;6.00;1.80;;;;;;;14.39;80.44;100760.59;5215481;56;1138956;-73
2022/05/31 07:44:20;;;;;;;1.70;1.40;;;;;;;14.47;79.46;100768.42;5255782;55;1139280;-73
2022/05/31 07:49:25;;;;;;;1.43;1.03;;;;;;;14.44;77.23;100764.20;5304795;55;1138879;-73
2022/05/31 07:54:33;;;;;;;3.87;1.07;;;;;;;14.55;77.13;100768.06;5205351;55;1138944;-73
2022/05/31 07:59:58;;;;;;;2.40;1.17;;;;;;;14.91;76.95;100767.04;5048676;58;1136946;-73
2022/05/31 08:05:22;;;;;;;3.07;1.40;;;;;;;15.13;72.73;100759.58;4982605;59;1137115;-73
2022/05/31 08:10:30;;;;;;;4.67;1.20;;;;;;;15.37;69.76;100767.61;4994515;58;1136939;-73
2022/05/31 08:15:35;;;;;;;4.27;1.17;;;;;;;15.44;70.61;100764.70;4994769;58;1137070;-72
2022/05/31 08:20:42;;;;;;;1.83;0.93;;;;;;;15.31;68.75;100775.67;5075542;58;1136981;-73
2022/05/31 08:25:47;;;;;;;1.50;0.93;;;;;;;15.08;67.38;100780.48;4994748;59;1137064;-73
2022/05/31 08:31:03;;;;;;;1.10;0.80;;;;;;;15.05;67.50;100768.78;4994368;59;1136945;-73
2022/05/31 08:36:09;;;;;;;5.47;3.57;;;;;;;15.24;67.48;100772.41;4994398;59;1137393;-73
2022/05/31 08:41:33;;;;;;;3.37;0.90;;;;;;;15.22;66.96;100769.05;4994515;59;1136999;-73
2022/05/31 08:46:52;;;;;;;8.30;1.53;;;;;;;15.39;67.65;100767.82;5068824;58;1139317;-73
2022/05/31 08:52:05;;;;;;;2.63;0.97;;;;;;;15.68;64.89;100766.92;4956234;58;1139019;-73
2022/05/31 08:57:15;;;;;;;1.22;0.60;;;;;;;15.73;63.79;100762.00;4990383;59;1139232;-73
2022/05/31 09:02:43;;;;;;;1.63;0.70;;;;;;;15.64;64.03;100764.20;5075522;58;1139013;-73
2022/05/31 09:08:01;;;;;;;2.33;0.80;;;;;;;15.51;64.36;100769.81;5030559;58;1138984;-73
2022/05/31 09:13:35;;;;;;;1.03;0.90;;;;;;;15.68;64.75;100755.77;5239977;56;1139007;-73
2022/05/31 09:19:00;;;;;;;3.30;1.60;;;;;;;15.95;65.08;100750.94;5169525;56;1139233;-72
2022/05/31 09:24:13;;;;;;;6.30;1.77;;;;;;;16.07;61.76;100754.24;5135323;57;1139051;-73
2022/05/31 09:29:23;;;;;;;1.40;1.32;;;;;;;16.33;61.72;100764.58;5125377;57;1139001;-73
2022/05/31 09:34:42;;;;;;;3.03;0.93;;;;;;;16.37;60.40;100751.25;5005885;57;1139032;-73
2022/05/31 09:39:58;;;;;;;1.40;0.73;;;;;;;16.43;59.14;100755.16;4963163;59;1139090;-73
2022/05/31 09:45:15;;;;;;;1.93;0.70;;;;;;;16.33;60.94;100754.39;5050942;58;1138993;-74
2022/05/31 09:50:28;;;;;;;5.17;0.90;;;;;;;16.32;59.40;100752.72;5108198;57;1136936;-73
2022/05/31 10:01:30;;;;;;;0.70;0.70;;;;;;;16.40;60.77;100756.30;4985837;58;1136988;-73
2022/05/31 10:06:57;;;;;;;2.20;0.63;;;;;;;16.33;59.22;100745.05;5058998;58;1136939;-73
2022/05/31 10:12:30;;;;;;;2.63;0.80;;;;;;;16.43;58.39;100743.15;5065114;58;1138958;-73
2022/05/31 10:17:41;;;;;;;8.53;1.33;;;;;;;16.60;56.93;100746.33;5113777;57;1139049;-74
2022/05/31 10:23:06;;;;;;;3.90;1.03;;;;;;;16.91;57.84;100737.45;5139924;57;1139029;-74
2022/05/31 10:28:34;;;;;;;0.80;0.50;;;;;;;17.18;57.74;100730.64;5102014;57;1139064;-74
2022/05/31 10:33:42;;;;;;;3.17;0.90;;;;;;;17.27;56.22;100732.86;5067090;57;1139027;-74
2022/05/31 10:38:50;;;;;;;0.53;0.50;;;;;;;17.23;56.61;100732.36;4998021;58;1138972;-74
2022/05/31 10:44:09;;;;;;;3.37;0.80;;;;;;;17.25;54.30;100726.02;5094630;57;1138968;-74
2022/05/31 10:49:24;;;;;;;1.17;0.73;;;;;;;17.17;55.75;100722.78;5181593;56;1138965;-74
2022/05/31 10:54:58;;;;;;;3.00;1.00;;;;;;;17.19;52.98;100720.30;5109489;57;1139004;-74
2022/05/31 11:00:12;;;;;;;2.13;1.00;;;;;;;17.11;53.81;100714.87;5131876;57;1138933;-74
2022/05/31 11:05:21;;;;;;;0.80;0.80;;;;;;;17.19;50.77;100718.13;5179794;56;1138994;-73
2022/05/31 11:16:38;;;;;;;1.73;1.10;;;;;;;16.97;51.25;100714.11;5115629;57;1137260;-73
2022/05/31 11:21:50;;;;;;;2.33;1.00;;;;;;;17.04;53.30;100711.67;5091039;57;1136922;-74
2022/05/31 11:27:13;;;;;;;2.83;0.87;;;;;;;17.41;53.84;100710.92;5124554;57;1136913;-74
2022/05/31 11:33:00;;;;;;;3.87;1.20;;;;;;;17.72;52.86;100693.05;5101822;57;1138866;-73
2022/05/31 11:38:19;;;;;;;2.65;1.07;;;;;;;18.17;51.16;100696.72;5033494;58;1139003;-74
2022/05/31 11:44:14;;;;;;;3.63;1.10;;;;;;;18.24;50.51;100697.72;5055716;58;1139219;-73
2022/05/31 11:49:54;;;;;;;7.70;2.00;;;;;;;18.54;52.81;100703.80;5115916;58;1139032;-74
2022/05/31 11:55:32;;;;;;;1.83;1.13;;;;;;;18.82;49.36;100698.14;4937814;58;1138982;-74
2022/05/31 12:01:18;;;;;;;4.47;1.05;;;;;;;19.05;47.85;100696.47;5007091;59;1137144;-74
2022/05/31 12:06:43;;;;;;;2.50;1.12;;;;;;;19.29;46.15;100697.75;5031464;58;1136881;-74
2022/05/31 12:12:13;;;;;;;2.50;0.53;;;;;;;19.50;44.99;100692.38;5090848;57;1137095;-74
2022/05/31 12:17:24;;;;;;;7.90;1.00;;;;;;;19.66;45.77;100689.63;5129870;57;1179820;-73
2022/05/31 12:22:36;;;;;;;4.97;1.83;;;;;;;19.66;44.79;100685.61;5126352;57;1139009;-74
2022/05/31 12:28:06;;;;;;;1.55;1.00;;;;;;;19.76;45.06;100676.84;5041491;58;1138452;-73
2022/05/31 12:33:46;;;;;;;1.50;0.90;;;;;;;19.91;42.15;100661.66;4999601;57;1139014;-74
2022/05/31 12:39:11;;;;;;;1.65;1.00;;;;;;;19.91;42.15;100661.66;5031867;58;1139024;-73
2022/05/31 12:44:33;;;;;;;2.30;1.15;;;;;;;19.99;43.60;100660.30;5046486;58;1139306;-73
2022/05/31 12:49:49;;;;;;;3.25;0.98;;;;;;;20.18;43.72;100658.14;5046362;58;1138971;-74
2022/05/31 12:54:58;;;;;;;2.35;1.00;;;;;;;20.18;42.97;100646.89;5046422;58;1138998;-73
2022/05/31 13:00:05;;;;;;;1.57;0.70;;;;;;;20.36;43.84;100653.36;5046553;58;1139240;-73
2022/05/31 13:05:39;;;;;;;4.53;1.20;;;;;;;20.28;43.16;100645.34;5009424;58;1139085;-73
2022/05/31 13:21:53;;;;;;;2.60;0.90;;;;;;;20.23;44.25;100634.28;4928992;58;1136996;-72
2022/05/31 13:27:01;;;;;;;6.65;1.65;;;;;;;20.34;42.24;100632.52;4937669;60;1136901;-73
2022/05/31 13:32:11;;;;;;;1.85;0.90;;;;;;;20.51;42.01;100641.31;4937573;60;1136864;-71
2022/05/31 13:37:20;;;;;;;1.62;1.35;;;;;;;20.66;42.99;100626.07;4937696;59;1137127;-74
2022/05/31 13:42:37;;;;;;;2.72;1.20;;;;;;;20.55;40.87;100631.89;5037698;57;1136947;-73
2022/05/31 13:48:02;;;;;;;2.33;1.10;;;;;;;20.44;41.18;100639.04;5096990;57;1138917;-71
2022/05/31 13:53:11;;;;;;;3.30;1.10;;;;;;;20.52;42.61;100628.21;5043819;58;1139016;-71
2022/05/31 13:58:22;;;;;;;3.67;1.20;;;;;;;20.65;42.41;100627.92;5044335;58;1138968;-72
2022/05/31 14:03:32;;;;;;;2.85;0.95;;;;;;;20.66;41.86;100625.56;4913811;59;1139050;-72
2022/05/31 14:08:54;;;;;;;1.47;0.88;;;;;;;20.52;41.23;100618.81;5043297;58;1139234;-70
2022/05/31 14:14:07;;;;;;;1.80;1.00;;;;;;;20.66;42.03;100614.81;5125192;57;1139293;-72
2022/05/31 14:19:24;;;;;;;1.65;0.90;;;;;;;20.78;40.55;100621.11;5240309;56;1139040;-73
2022/05/31 14:24:33;;;;;;;2.36;1.78;;;;;;;20.56;40.97;100616.93;5249238;56;1139064;-72
2022/05/31 14:29:39;;;;;;;3.74;1.08;;;;;;;20.53;42.14;100613.77;5249228;56;1139108;-71
2022/05/31 14:34:52;;;;;;;5.43;1.03;;;;;;;20.73;42.56;100606.87;5249156;56;1138979;-72
2022/05/31 14:40:06;;;;;;;3.87;1.10;;;;;;;20.65;41.89;100606.93;5221131;56;1138967;-72
2022/05/31 14:45:14;;;;;;;5.78;1.32;;;;;;;20.63;42.36;100611.14;5163807;56;1139256;-71
2022/05/31 14:50:32;;;;;;;3.10;1.30;;;;;;;20.75;41.11;100606.69;5123731;57;1139067;-73
2022/05/31 14:55:44;;;;;;;1.42;1.00;;;;;;;20.77;42.78;100593.91;5162759;57;1139104;-73
2022/05/31 15:00:52;;;;;;;;;;;;;;;20.97;43.36;100586.45;5174624;56;1139025;-73
2022/05/31 15:06:11;;;;;;;3.30;1.40;;;;;;;21.14;41.58;100574.16;5252745;56;976326;-71
2022/05/31 15:22:05;;;;;;;2.45;1.07;;;;;;;20.99;41.27;100568.78;5152008;56;1136916;-73
2022/05/31 15:27:27;;;;;;;2.42;1.55;;;;;;;20.87;42.45;100564.89;5151898;56;1137202;-73
2022/05/31 15:32:33;;;;;;;5.23;1.23;;;;;;;20.82;42.71;100556.03;5152229;57;1137220;-74
2022/05/31 15:37:39;;;;;;;2.05;1.17;;;;;;;20.97;42.98;100556.03;5151880;57;1137131;-70
2022/05/31 15:42:45;;;;;;;2.50;1.17;;;;;;;21.13;42.58;100546.94;5164578;56;1137031;-72
2022/05/31 15:47:50;;;;;;;4.22;1.02;;;;;;;21.14;42.52;100545.92;5163605;56;1136900;-73
2022/05/31 15:52:56;;;;;;;7.28;1.80;;;;;;;21.25;43.10;100538.74;5160801;57;1134803;-74
2022/05/31 15:58:02;;;;;;;3.12;1.10;;;;;;;21.32;41.36;100536.98;5160853;57;1134800;-73
2022/05/31 16:03:09;;;;;;;2.20;0.85;;;;;;;21.33;42.58;100538.14;5101795;57;1139095;-73
2022/05/31 16:08:15;;;;;;;3.67;1.22;;;;;;;21.36;40.70;100531.05;5148214;57;1138889;-73
2022/05/31 16:13:21;;;;;;;5.43;1.43;;;;;;;21.42;42.01;100526.75;5157317;57;1139230;-72
2022/05/31 16:18:27;;;;;;;4.40;1.10;;;;;;;21.44;41.57;100535.98;5116530;56;1138898;-73
2022/05/31 16:23:35;;;;;;;6.22;1.67;;;;;;;21.41;41.95;100521.87;5097361;57;1139073;-73
2022/05/31 16:28:40;;;;;;;5.65;1.80;;;;;;;21.54;42.53;100526.57;5158848;57;1138959;-73
2022/05/31 16:33:46;;;;;;;5.30;1.92;;;;;;;21.48;41.69;100524.66;5146609;57;1139061;-73
2022/05/31 16:44:15;;;;;;;7.35;1.77;;;;;;;21.51;42.02;100518.91;5174949;56;1139037;-73
2022/05/31 16:49:22;;;;;;;6.75;2.17;;;;;;;21.44;41.32;100514.45;5075430;58;1139033;-73
2022/05/31 16:54:31;;;;;;;4.85;1.50;;;;;;;21.35;42.50;100517.78;5075635;58;1138941;-73
2022/05/31 16:59:43;;;;;;;8.28;1.37;;;;;;;21.44;43.37;100518.48;5075377;58;1138952;-72
2022/05/31 17:04:50;;;;;;;5.22;1.50;;;;;;;21.47;43.72;100503.31;4994679;59;1139282;-73
2022/05/31 17:15:29;;;;;;;11.45;2.10;;;;;;;21.28;43.65;100493.98;5039375;58;1139343;-73
2022/05/31 17:20:40;;;;;;;7.17;2.70;;;;;;;21.18;44.41;100496.95;4994426;58;1141128;-72
2022/05/31 17:25:50;;;;;;;4.78;2.98;;;;;;;21.06;42.30;100499.80;5033338;58;1138995;-73
2022/05/31 17:30:56;;;;;;;4.80;2.25;;;;;;;20.97;43.07;100496.37;5117117;57;1139099;-73
2022/05/31 17:36:06;;;;;;;1.80;0.85;;;;;;;20.92;42.13;100493.42;5162782;56;1139024;-73
2022/05/31 17:41:21;;;;;;;2.17;1.00;;;;;;;20.83;42.90;100497.72;5114018;57;1139022;-73
2022/05/31 17:46:29;;;;;;;2.05;1.65;;;;;;;20.69;43.35;100490.82;5148796;57;1139006;-73
2022/05/31 17:51:38;;;;;;;4.03;1.57;;;;;;;20.60;43.90;100490.59;5150323;57;1139230;-74
2022/05/31 17:56:44;;;;;;;5.15;1.65;;;;;;;20.51;44.50;100487.66;5151813;57;1138977;-73
2022/05/31 18:01:53;;;;;;;4.70;3.08;;;;;;;20.49;45.26;100484.31;5135551;57;1139017;-73
2022/05/31 18:07:00;;;;;;;5.33;1.85;;;;;;;20.45;46.32;100484.37;5159117;57;1136899;-73
2022/05/31 18:12:07;;;;;;;4.25;2.15;;;;;;;20.33;47.46;100485.28;5162568;57;1137114;-73
2022/05/31 18:17:13;;;;;;;2.52;0.78;;;;;;;20.18;47.94;100492.48;5057464;57;1137076;-73
2022/05/31 18:22:20;;;;;;;13.65;5.78;;;;;;;20.02;48.50;100489.42;5090385;57;1136903;-72
2022/05/31 18:27:26;;;;;;;29.06;10.72;;;;;;;19.93;49.10;100490.52;5173758;56;1139033;-73
2022/05/31 18:32:36;;;;;;;51.95;33.90;;;;;;;19.86;50.14;100485.53;5117808;56;1141074;-73
2022/05/31 18:43:19;;;;;;;23.42;10.45;;;;;;;19.68;51.07;100481.50;5090465;57;1141103;-73
2022/05/31 18:48:27;;;;;;;5.25;3.40;;;;;;;19.61;51.76;100486.23;5103011;57;1141046;-73
2022/05/31 18:53:33;;;;;;;5.02;2.50;;;;;;;19.59;52.55;100504.85;5116683;56;1134825;-73
2022/05/31 18:58:41;;;;;;;2.17;1.90;;;;;;;19.51;53.02;100533.92;5132084;57;1134870;-73
2022/05/31 19:03:52;;;;;;;4.85;2.37;;;;;;;19.33;55.65;100578.41;5086399;57;1138946;-74
2022/05/31 19:08:54;;;;;;;4.67;2.70;;;;;;;18.72;63.58;100629.99;5148881;57;1138922;-73
2022/05/31 19:14:01;;;;;;;5.47;2.67;;;;;;;18.06;67.09;100624.73;5137757;56;1138881;-73
2022/05/31 19:19:08;;;;;;;3.47;2.57;;;;;;;17.55;70.72;100610.04;5121573;57;1138951;-73
2022/05/31 19:24:15;;;;;;;5.33;3.00;;;;;;;17.16;70.98;100586.97;5110934;57;1139017;-73
2022/05/31 19:29:20;;;;;;;4.10;2.73;;;;;;;16.84;76.88;100585.45;5096832;56;1138978;-74
2022/05/31 19:34:50;;;;;;;4.23;3.20;;;;;;;16.64;73.06;100570.16;5078791;58;1139045;-73
2022/05/31 19:39:57;;;;;;;3.97;2.80;;;;;;;16.52;74.36;100565.52;5078648;58;1139008;-73
2022/05/31 19:45:03;;;;;;;6.03;2.67;;;;;;;16.44;73.77;100554.79;5139816;56;1139092;-73
2022/05/31 19:50:12;;;;;;;5.37;2.63;;;;;;;16.42;74.16;100543.92;5191330;56;1138931;-73
2022/05/31 19:55:24;;;;;;;10.50;8.90;;;;;;;16.42;74.49;100564.78;5119116;57;1138953;-73
2022/05/31 20:00:26;;;;;;;31.60;16.87;;;;;;;16.22;76.25;100543.26;5077737;58;1141069;-73
2022/05/31 20:05:33;;;;;;;3.13;2.60;;;;;;;15.99;77.09;100552.25;5077887;58;1143308;-73
2022/05/31 20:10:40;;;;;;;7.07;2.30;;;;;;;15.82;77.76;100543.26;5077885;58;1139044;-74
2022/05/31 20:15:45;;;;;;;2.33;2.20;;;;;;;15.78;77.75;100535.21;5086533;57;1139026;-73
2022/05/31 20:20:57;;;;;;;2.83;2.33;;;;;;;15.74;78.76;100539.16;5116359;56;1139238;-73
2022/05/31 20:26:04;;;;;;;2.47;2.27;;;;;;;15.60;78.66;100538.35;5177932;56;1138995;-73
2022/05/31 20:31:11;;;;;;;2.63;2.43;;;;;;;15.49;79.49;100523.39;5146499;57;1139257;-73
2022/05/31 20:36:17;;;;;;;3.73;2.40;;;;;;;15.45;80.87;100515.84;5075729;57;1138988;-73
2022/05/31 20:41:25;;;;;;;3.43;3.10;;;;;;;15.43;79.39;100521.80;5075794;57;1139205;-74
2022/05/31 20:46:32;;;;;;;3.60;2.97;;;;;;;15.40;80.47;100519.47;5177591;56;1139168;-72
2022/05/31 20:51:39;;;;;;;2.70;2.50;;;;;;;15.36;80.50;100518.08;5119966;56;1138976;-73
2022/05/31 20:56:48;;;;;;;3.50;2.43;;;;;;;15.32;81.24;100531.34;5124566;56;1139092;-73
2022/05/31 21:01:54;;;;;;;5.83;5.27;;;;;;;15.25;83.75;100527.63;5132728;56;1139192;-73
2022/05/31 21:07:00;;;;;;;2.43;2.23;;;;;;;15.09;84.22;100547.75;5102761;57;1138984;-73
2022/05/31 21:12:08;;;;;;;5.10;3.87;;;;;;;15.03;83.47;100542.16;5118168;57;1139399;-73
2022/05/31 21:17:16;;;;;;;5.20;3.43;;;;;;;14.94;84.86;100533.23;5081533;57;1138980;-73
2022/05/31 21:22:36;;;;;;;5.63;3.13;;;;;;;14.87;84.34;100505.50;5111855;57;1139019;-73
2022/05/31 21:27:39;;;;;;;3.80;2.90;;;;;;;14.85;84.74;100505.30;5121514;57;1136941;-73
2022/05/31 21:32:45;;;;;;;4.07;2.40;;;;;;;14.81;84.67;100502.11;5123237;57;1137019;-73
2022/05/31 21:37:52;;;;;;;2.97;2.77;;;;;;;14.79;85.07;100492.09;5132604;57;1136937;-73
2022/05/31 21:43:02;;;;;;;3.30;2.60;;;;;;;14.81;84.22;100486.62;5135110;57;1137228;-73
2022/05/31 21:48:08;;;;;;;5.27;2.33;;;;;;;14.81;84.64;100466.17;5120014;57;1136812;-72
2022/05/31 21:53:14;;;;;;;4.33;2.47;;;;;;;14.78;84.21;100463.80;5071225;57;1136989;-73
2022/05/31 21:58:20;;;;;;;2.10;1.60;;;;;;;14.77;83.82;100458.13;5109113;57;1137072;-73
2022/05/31 22:03:27;;;;;;;3.70;1.90;;;;;;;14.75;83.91;100456.09;5134063;57;1136976;-73
2022/05/31 22:08:33;;;;;;;1.60;1.60;;;;;;;14.75;84.15;100458.27;5105331;57;1137014;-73
2022/05/31 22:13:39;;;;;;;2.30;1.87;;;;;;;14.72;84.23;100443.91;5140668;57;1137076;-73
2022/05/31 22:18:45;;;;;;;5.03;1.67;;;;;;;14.75;84.34;100442.78;5158573;57;1136761;-73
2022/05/31 22:23:51;;;;;;;7.03;2.67;;;;;;;14.78;83.98;100440.67;5218456;56;1136918;-73
2022/05/31 22:28:57;;;;;;;2.00;1.80;;;;;;;14.85;83.98;100438.73;5129145;57;1137243;-73
2022/05/31 22:34:03;;;;;;;2.50;2.30;;;;;;;14.85;84.25;100461.36;5199093;56;1137185;-72
2022/05/31 22:39:10;;;;;;;19.60;10.00;;;;;;;14.54;87.08;100479.42;5237673;56;1137146;-73
2022/05/31 22:44:18;;;;;;;5.37;2.00;;;;;;;14.27;86.09;100473.03;5203565;56;1141172;-73
2022/05/31 22:49:24;;;;;;;2.40;2.20;;;;;;;14.18;88.81;100467.26;5160370;57;1135010;-73
2022/05/31 22:54:32;;;;;;;10.55;6.03;;;;;;;14.12;87.80;100468.31;5177083;57;1139097;-74
2022/05/31 22:59:38;;;;;;;13.03;7.90;;;;;;;14.17;87.57;100454.94;5073822;57;1141080;-73
2022/05/31 23:04:45;;;;;;;3.37;2.43;;;;;;;14.26;87.35;100451.41;5160542;57;1141054;-73
2022/05/31 23:09:51;;;;;;;3.75;3.42;;;;;;;14.43;87.42;100452.02;5139474;57;1139254;-73
2022/05/31 23:14:57;;;;;;;3.13;2.93;;;;;;;14.51;87.41;100437.16;5135095;56;1138958;-73
2022/05/31 23:20:06;;;;;;;4.73;2.33;;;;;;;14.51;86.81;100412.72;5238281;56;1139308;-73
2022/05/31 23:25:14;;;;;;;2.70;2.40;;;;;;;14.45;86.82;100411.95;5175274;56;1138892;-72
2022/05/31 23:35:44;;;;;;;4.37;2.00;;;;;;;14.45;87.29;100386.68;5152086;56;1139257;-73
2022/05/31 23:40:50;;;;;;;2.07;1.93;;;;;;;14.38;87.71;100399.69;5152025;56;1139000;-73
2022/05/31 23:45:57;;;;;;;3.17;1.67;;;;;;;14.40;87.46;100407.56;5218376;56;1138955;-73
2022/05/31 23:51:03;;;;;;;2.70;2.40;;;;;;;14.47;87.56;100394.03;5217297;56;1139007;-73
2022/05/31 23:56:09;;;;;;;2.20;2.10;;;;;;;14.51;87.43;100382.61;5160626;57;1139166;-73
